createdAt,value
2017-09-28T00:00:17.873Z,12.20
2017-09-28T00:02:46.247Z,12.10
2017-09-28T00:05:14.648Z,12.10
2017-09-28T00:07:43.029Z,12.10
2017-09-28T00:10:11.431Z,12.10
2017-09-28T00:12:39.856Z,12.10
2017-09-28T00:15:08.268Z,12.10
2017-09-28T00:17:36.670Z,12.00
2017-09-28T00:20:05.051Z,11.90
2017-09-28T00:22:33.707Z,12.00
2017-09-28T00:25:02.174Z,11.80
2017-09-28T00:27:30.572Z,11.80
2017-09-28T00:29:58.978Z,11.80
2017-09-28T00:32:27.373Z,11.80
2017-09-28T00:34:55.992Z,11.70
2017-09-28T00:37:24.388Z,11.70
2017-09-28T00:39:52.818Z,11.70
2017-09-28T00:42:22.004Z,11.60
2017-09-28T00:44:51.151Z,11.70
2017-09-28T00:47:19.736Z,11.60
2017-09-28T00:49:48.128Z,11.40
2017-09-28T00:52:16.527Z,11.20
2017-09-28T00:54:44.922Z,11.20
2017-09-28T00:57:13.296Z,11.30
2017-09-28T00:59:41.935Z,11.30
2017-09-28T01:02:10.328Z,11.20
2017-09-28T01:04:38.702Z,11.30
2017-09-28T01:07:07.115Z,11.30
2017-09-28T01:09:35.515Z,11.30
2017-09-28T01:12:04.843Z,11.20
2017-09-28T01:14:33.235Z,11.20
2017-09-28T01:17:01.799Z,11.20
2017-09-28T01:19:30.232Z,11.20
2017-09-28T01:21:58.614Z,11.30
2017-09-28T01:24:27.808Z,11.40
2017-09-28T01:26:56.191Z,11.40
2017-09-28T01:29:24.572Z,11.30
2017-09-28T01:31:53.799Z,11.20
2017-09-28T01:34:22.174Z,11.20
2017-09-28T01:36:50.623Z,11.20
2017-09-28T01:39:19.782Z,10.90
2017-09-28T01:41:48.178Z,10.90
2017-09-28T01:44:16.607Z,10.90
2017-09-28T01:46:44.999Z,10.90
2017-09-28T01:49:13.652Z,11.00
2017-09-28T01:51:42.791Z,10.90
2017-09-28T01:54:11.250Z,10.80
2017-09-28T01:56:39.675Z,10.90
2017-09-28T01:59:08.093Z,10.90
2017-09-28T02:01:38.035Z,10.90
2017-09-28T02:04:06.419Z,10.90
2017-09-28T02:06:34.816Z,10.90
2017-09-28T02:09:03.275Z,10.90
2017-09-28T02:11:31.671Z,10.90
2017-09-28T02:14:00.352Z,10.90
2017-09-28T02:16:28.745Z,10.90
2017-09-28T02:18:57.135Z,10.90
2017-09-28T02:21:25.543Z,10.90
2017-09-28T02:23:55.058Z,11.00
2017-09-28T02:26:24.529Z,11.00
2017-09-28T02:28:53.587Z,11.00
2017-09-28T02:31:22.538Z,11.00
2017-09-28T02:33:52.674Z,10.90
2017-09-28T02:36:21.662Z,10.90
2017-09-28T02:38:51.733Z,10.90
2017-09-28T02:41:21.453Z,10.80
2017-09-28T02:43:49.837Z,10.80
2017-09-28T02:46:19.028Z,10.80
2017-09-28T02:48:47.408Z,10.70
2017-09-28T02:51:15.819Z,10.60
2017-09-28T02:53:44.198Z,10.50
2017-09-28T02:56:12.572Z,10.40
2017-09-28T02:58:41.744Z,10.40
2017-09-28T03:01:10.123Z,10.40
2017-09-28T03:03:38.769Z,10.40
2017-09-28T03:06:07.144Z,10.50
2017-09-28T03:08:35.524Z,10.50
2017-09-28T03:11:03.921Z,10.40
2017-09-28T03:13:32.314Z,10.30
2017-09-28T03:16:00.738Z,10.30
2017-09-28T03:18:29.122Z,10.30
2017-09-28T03:20:57.499Z,10.20
2017-09-28T03:23:25.908Z,10.10
2017-09-28T03:25:54.292Z,10.10
2017-09-28T03:28:22.735Z,9.90
2017-09-28T03:30:51.106Z,9.80
2017-09-28T03:33:19.479Z,9.70
2017-09-28T03:35:47.886Z,9.70
2017-09-28T03:38:16.269Z,9.80
2017-09-28T03:40:44.962Z,9.90
2017-09-28T03:43:13.339Z,9.80
2017-09-28T03:45:41.715Z,9.80
2017-09-28T03:48:10.115Z,9.70
2017-09-28T03:50:38.495Z,9.70
2017-09-28T03:53:07.160Z,9.70
2017-09-28T03:55:35.538Z,9.70
2017-09-28T03:58:03.911Z,9.70
2017-09-28T04:00:32.320Z,9.60
2017-09-28T04:03:00.699Z,9.70
2017-09-28T04:05:29.123Z,9.70
2017-09-28T04:07:57.500Z,9.80
2017-09-28T04:10:26.735Z,9.80
2017-09-28T04:12:55.136Z,9.80
2017-09-28T04:15:23.506Z,9.70
2017-09-28T04:17:51.940Z,9.80
2017-09-28T04:20:20.316Z,9.70
2017-09-28T04:22:48.720Z,9.70
2017-09-28T04:25:17.127Z,9.70
2017-09-28T04:27:45.548Z,9.70
2017-09-28T04:30:14.270Z,9.80
2017-09-28T04:32:42.655Z,9.80
2017-09-28T04:35:11.038Z,9.80
2017-09-28T04:37:39.459Z,9.70
2017-09-28T04:40:08.599Z,9.80
2017-09-28T04:42:37.290Z,9.70
2017-09-28T04:45:05.874Z,9.80
2017-09-28T04:47:34.247Z,9.70
2017-09-28T04:50:02.655Z,9.70
2017-09-28T04:52:31.035Z,9.70
2017-09-28T04:54:59.461Z,9.70
2017-09-28T04:57:27.830Z,9.70
2017-09-28T04:59:56.222Z,9.70
2017-09-28T05:02:24.636Z,9.70
2017-09-28T05:04:53.047Z,9.70
2017-09-28T05:07:22.233Z,9.70
2017-09-28T05:09:50.610Z,9.70
2017-09-28T05:12:18.986Z,9.70
2017-09-28T05:14:47.395Z,9.80
2017-09-28T05:17:15.771Z,9.80
2017-09-28T05:19:44.487Z,9.80
2017-09-28T05:22:12.959Z,9.80
2017-09-28T05:24:41.487Z,9.90
2017-09-28T05:27:09.929Z,9.90
2017-09-28T05:29:38.348Z,10.00
2017-09-28T05:32:07.223Z,10.10
2017-09-28T05:34:35.752Z,10.20
2017-09-28T05:37:04.169Z,10.30
2017-09-28T05:39:32.670Z,10.50
2017-09-28T05:42:01.071Z,10.70
2017-09-28T05:44:30.425Z,11.50
2017-09-28T05:46:58.925Z,11.40
2017-09-28T05:49:27.308Z,12.00
2017-09-28T05:51:55.719Z,12.50
2017-09-28T05:54:24.864Z,13.50
2017-09-28T05:56:53.448Z,13.40
2017-09-28T05:59:21.827Z,13.90
2017-09-28T06:01:50.251Z,14.60
2017-09-28T06:04:19.438Z,15.50
2017-09-28T06:06:47.822Z,15.40
2017-09-28T06:09:16.355Z,16.10
2017-09-28T06:11:44.811Z,16.50
2017-09-28T06:14:13.186Z,17.00
2017-09-28T06:16:41.599Z,16.90
2017-09-28T06:19:09.988Z,16.70
2017-09-28T06:21:38.596Z,16.20
2017-09-28T06:24:06.979Z,15.80
2017-09-28T06:26:35.374Z,15.30
2017-09-28T06:29:04.557Z,14.80
2017-09-28T06:31:32.944Z,14.80
2017-09-28T06:34:02.295Z,15.80
2017-09-28T06:36:30.680Z,15.80
2017-09-28T06:38:59.063Z,16.00
2017-09-28T06:41:27.471Z,15.80
2017-09-28T06:43:55.858Z,16.00
2017-09-28T06:46:24.290Z,16.20
2017-09-28T06:48:52.675Z,16.40
2017-09-28T06:51:21.059Z,16.80
2017-09-28T06:53:49.502Z,17.10
2017-09-28T06:56:17.888Z,17.70
2017-09-28T06:58:46.484Z,18.20
2017-09-28T07:01:14.878Z,18.60
2017-09-28T07:03:43.264Z,19.20
2017-09-28T07:06:11.688Z,19.40
2017-09-28T07:08:40.119Z,20.00
2017-09-28T07:11:08.783Z,20.30
2017-09-28T07:13:37.176Z,21.50
2017-09-28T07:16:05.565Z,21.10
2017-09-28T07:18:33.992Z,20.70
2017-09-28T07:21:02.404Z,20.30
2017-09-28T07:23:31.093Z,20.50
2017-09-28T07:25:59.571Z,20.10
2017-09-28T07:28:27.952Z,19.30
2017-09-28T07:30:56.367Z,19.10
2017-09-28T07:33:25.515Z,19.30
2017-09-28T07:35:53.944Z,19.30
2017-09-28T07:38:23.098Z,18.70
2017-09-28T07:40:51.490Z,18.60
2017-09-28T07:43:19.900Z,19.30
2017-09-28T07:45:49.053Z,19.90
2017-09-28T07:48:17.617Z,19.90
2017-09-28T07:50:46.011Z,20.70
2017-09-28T07:53:14.414Z,20.80
2017-09-28T07:55:42.830Z,20.90
2017-09-28T07:58:11.215Z,20.40
2017-09-28T08:00:39.843Z,20.20
2017-09-28T08:03:08.232Z,20.10
2017-09-28T08:05:36.619Z,20.20
2017-09-28T08:08:05.027Z,20.80
2017-09-28T08:10:34.175Z,21.30
2017-09-28T08:13:02.852Z,21.20
2017-09-28T08:15:31.254Z,21.80
2017-09-28T08:17:59.639Z,21.90
2017-09-28T08:20:28.051Z,22.30
2017-09-28T08:22:56.455Z,22.60
2017-09-28T08:25:25.043Z,22.50
2017-09-28T08:27:53.456Z,22.30
2017-09-28T08:30:21.838Z,22.50
2017-09-28T08:32:50.253Z,21.70
2017-09-28T08:35:18.639Z,21.50
2017-09-28T08:37:47.040Z,22.10
2017-09-28T08:40:15.451Z,22.40
2017-09-28T08:42:44.614Z,22.00
2017-09-28T08:45:13.005Z,21.90
2017-09-28T08:47:41.412Z,21.90
2017-09-28T08:50:09.794Z,22.10
2017-09-28T08:52:38.541Z,22.60
2017-09-28T08:55:06.932Z,22.90
2017-09-28T08:57:35.315Z,22.70
2017-09-28T09:00:03.724Z,22.40
2017-09-28T09:02:32.873Z,22.50
2017-09-28T09:05:01.868Z,22.50
2017-09-28T09:07:30.260Z,23.20
2017-09-28T09:09:59.508Z,22.80
2017-09-28T09:12:28.679Z,23.40
2017-09-28T09:14:57.831Z,23.20
2017-09-28T09:17:26.527Z,23.20
2017-09-28T09:19:54.919Z,23.20
2017-09-28T09:22:23.309Z,23.20
2017-09-28T09:24:51.725Z,22.70
2017-09-28T09:27:20.106Z,22.90
2017-09-28T09:29:48.920Z,23.00
2017-09-28T09:32:17.311Z,23.50
2017-09-28T09:34:45.716Z,23.70
2017-09-28T09:37:14.131Z,23.50
2017-09-28T09:39:42.526Z,24.10
2017-09-28T09:42:10.951Z,24.00
2017-09-28T09:44:39.331Z,24.10
2017-09-28T09:47:07.724Z,24.80
2017-09-28T09:49:36.166Z,25.10
2017-09-28T09:52:04.533Z,25.00
2017-09-28T09:54:32.992Z,25.00
2017-09-28T09:57:01.370Z,25.00
2017-09-28T09:59:29.747Z,24.70
2017-09-28T10:01:58.196Z,24.80
2017-09-28T10:04:26.760Z,24.20
2017-09-28T10:07:04.676Z,24.70
2017-09-28T10:09:47.428Z,24.70
2017-09-28T10:12:35.547Z,24.90
2017-09-28T10:15:24.710Z,25.60
2017-09-28T10:17:53.904Z,25.10
2017-09-28T10:20:23.116Z,24.90
2017-09-28T10:22:52.767Z,25.50
2017-09-28T10:25:21.151Z,25.50
2017-09-28T10:27:49.527Z,25.40
2017-09-28T10:30:17.932Z,25.40
2017-09-28T10:32:47.092Z,24.80
2017-09-28T10:35:16.908Z,24.80
2017-09-28T10:37:45.315Z,24.80
2017-09-28T10:40:13.691Z,24.10
2017-09-28T10:42:42.891Z,23.80
2017-09-28T10:45:11.298Z,23.70
2017-09-28T10:47:39.926Z,23.90
2017-09-28T10:50:08.310Z,24.00
2017-09-28T10:52:36.694Z,24.10
2017-09-28T10:55:05.096Z,24.20
2017-09-28T10:57:33.475Z,23.90
2017-09-28T11:00:02.018Z,24.10
2017-09-28T11:02:30.403Z,24.00
2017-09-28T11:04:58.783Z,24.10
2017-09-28T11:07:27.192Z,24.20
2017-09-28T11:09:55.640Z,23.80
2017-09-28T11:12:24.220Z,23.70
2017-09-28T11:14:52.606Z,23.10
2017-09-28T11:17:21.004Z,23.40
2017-09-28T11:19:49.415Z,23.70
2017-09-28T11:22:17.824Z,23.70
2017-09-28T11:24:46.387Z,23.50
2017-09-28T11:27:14.763Z,23.50
2017-09-28T11:29:43.147Z,23.60
2017-09-28T11:32:11.554Z,23.50
2017-09-28T11:34:39.931Z,23.40
2017-09-28T11:37:08.515Z,23.80
2017-09-28T11:39:36.894Z,24.00
2017-09-28T11:42:05.282Z,23.80
2017-09-28T11:44:33.692Z,23.90
2017-09-28T11:47:02.062Z,24.00
2017-09-28T11:49:30.602Z,24.00
2017-09-28T11:51:59.007Z,23.90
2017-09-28T11:54:27.391Z,23.60
2017-09-28T11:56:55.796Z,24.10
2017-09-28T11:59:24.942Z,24.10
2017-09-28T12:01:53.526Z,24.10
2017-09-28T12:04:21.905Z,24.50
2017-09-28T12:06:50.283Z,24.60
2017-09-28T12:09:18.690Z,25.00
2017-09-28T12:11:47.058Z,25.10
2017-09-28T12:14:15.832Z,25.20
2017-09-28T12:16:44.207Z,25.10
2017-09-28T12:19:12.596Z,24.80
2017-09-28T12:21:40.989Z,24.70
2017-09-28T12:24:09.370Z,25.00
2017-09-28T12:26:38.946Z,25.00
2017-09-28T12:29:07.325Z,25.00
2017-09-28T12:31:35.713Z,25.50
2017-09-28T12:34:04.110Z,26.30
2017-09-28T12:36:32.574Z,26.60
2017-09-28T12:39:01.223Z,26.40
2017-09-28T12:41:29.605Z,26.10
2017-09-28T12:43:57.991Z,26.80
2017-09-28T12:46:26.419Z,26.90
2017-09-28T12:48:54.796Z,26.80
2017-09-28T12:51:23.226Z,26.70
2017-09-28T12:53:51.603Z,26.50
2017-09-28T12:56:19.980Z,25.90
2017-09-28T12:58:48.390Z,25.80
2017-09-28T13:01:16.797Z,25.50
2017-09-28T13:03:45.541Z,25.30
2017-09-28T13:06:13.912Z,25.30
2017-09-28T13:08:42.292Z,25.30
2017-09-28T13:11:10.699Z,25.20
2017-09-28T13:13:39.096Z,25.00
2017-09-28T13:16:08.294Z,24.60
2017-09-28T13:18:36.671Z,24.60
2017-09-28T13:21:05.820Z,24.80
2017-09-28T13:23:34.219Z,24.80
2017-09-28T13:26:02.602Z,25.00
2017-09-28T13:28:31.167Z,25.00
2017-09-28T13:30:59.547Z,25.10
2017-09-28T13:33:27.926Z,25.10
2017-09-28T13:35:56.325Z,25.30
2017-09-28T13:38:24.703Z,25.40
2017-09-28T13:40:53.375Z,24.90
2017-09-28T13:43:21.747Z,25.20
2017-09-28T13:45:50.129Z,25.50
2017-09-28T13:48:18.534Z,25.70
2017-09-28T13:50:46.908Z,25.60
2017-09-28T13:53:15.566Z,25.50
2017-09-28T13:55:43.943Z,25.50
2017-09-28T13:58:12.319Z,25.70
2017-09-28T14:00:40.809Z,25.80
2017-09-28T14:03:09.186Z,25.80
2017-09-28T14:05:37.760Z,25.50
2017-09-28T14:08:06.141Z,25.30
2017-09-28T14:10:34.521Z,25.20
2017-09-28T14:13:02.926Z,24.80
2017-09-28T14:15:31.305Z,24.70
2017-09-28T14:17:59.867Z,24.90
2017-09-28T14:20:28.392Z,24.70
2017-09-28T14:22:57.538Z,24.40
2017-09-28T14:25:25.942Z,24.40
2017-09-28T14:27:54.332Z,24.50
2017-09-28T14:30:22.778Z,24.60
2017-09-28T14:32:51.581Z,24.40
2017-09-28T14:35:19.981Z,24.00
2017-09-28T14:37:48.388Z,23.70
2017-09-28T14:40:16.780Z,23.60
2017-09-28T14:42:45.380Z,23.60
2017-09-28T14:45:13.765Z,23.50
2017-09-28T14:47:42.147Z,23.30
2017-09-28T14:50:10.549Z,23.20
2017-09-28T14:52:38.936Z,22.90
2017-09-28T14:55:07.687Z,22.70
2017-09-28T14:57:36.722Z,22.50
2017-09-28T15:00:05.103Z,22.50
2017-09-28T15:02:34.270Z,22.10
2017-09-28T15:05:02.643Z,22.10
2017-09-28T15:07:31.454Z,22.10
2017-09-28T15:09:59.844Z,22.20
2017-09-28T15:12:28.995Z,22.10
2017-09-28T15:14:57.426Z,22.10
2017-09-28T15:17:26.570Z,22.40
2017-09-28T15:19:55.011Z,22.40
2017-09-28T15:22:23.388Z,22.30
2017-09-28T15:24:51.778Z,22.10
2017-09-28T15:27:20.184Z,22.10
2017-09-28T15:29:48.581Z,22.00
2017-09-28T15:32:17.363Z,21.90
2017-09-28T15:34:45.772Z,21.70
2017-09-28T15:37:15.471Z,21.70
2017-09-28T15:39:43.937Z,21.70
2017-09-28T15:42:12.375Z,21.60
2017-09-28T15:44:40.882Z,21.60
2017-09-28T15:47:09.324Z,21.60
2017-09-28T15:49:37.820Z,21.50
2017-09-28T15:52:06.223Z,21.50
2017-09-28T15:54:34.611Z,21.60
2017-09-28T15:57:03.291Z,21.60
2017-09-28T15:59:31.695Z,21.70
2017-09-28T16:02:00.111Z,21.70
2017-09-28T16:04:28.528Z,21.70
2017-09-28T16:06:56.930Z,21.70
2017-09-28T16:09:25.591Z,21.70
2017-09-28T16:11:53.998Z,21.70
2017-09-28T16:14:23.265Z,21.50
2017-09-28T16:16:51.707Z,21.50
2017-09-28T16:19:20.508Z,21.40
2017-09-28T16:21:49.255Z,21.40
2017-09-28T16:24:17.764Z,21.20
2017-09-28T16:26:46.192Z,21.10
2017-09-28T16:29:14.642Z,21.00
2017-09-28T16:31:43.038Z,20.90
2017-09-28T16:34:11.806Z,20.80
2017-09-28T16:36:40.240Z,20.70
2017-09-28T16:39:08.643Z,20.50
2017-09-28T16:41:37.970Z,20.20
2017-09-28T16:44:06.523Z,20.20
2017-09-28T16:46:36.301Z,19.90
2017-09-28T16:49:04.744Z,19.90
2017-09-28T16:51:33.347Z,19.80
2017-09-28T16:54:01.779Z,19.70
2017-09-28T16:56:30.218Z,19.50
2017-09-28T16:58:58.622Z,19.40
2017-09-28T17:01:27.806Z,19.10
2017-09-28T17:03:56.195Z,19.10
2017-09-28T17:06:25.718Z,18.80
2017-09-28T17:08:54.327Z,18.80
2017-09-28T17:11:22.786Z,18.70
2017-09-28T17:13:52.535Z,18.40
2017-09-28T17:16:21.428Z,18.30
2017-09-28T17:18:50.024Z,18.30
2017-09-28T17:21:20.404Z,18.20
2017-09-28T17:23:48.985Z,18.30
2017-09-28T17:26:19.565Z,18.00
2017-09-28T17:28:48.534Z,17.90
2017-09-28T17:31:17.525Z,17.80
2017-09-28T17:33:47.101Z,17.60
2017-09-28T17:36:16.142Z,17.50
2017-09-28T17:38:46.380Z,17.40
2017-09-28T17:41:14.932Z,17.30
2017-09-28T17:43:44.119Z,17.20
2017-09-28T17:46:15.436Z,17.10
2017-09-28T17:48:45.963Z,16.90
2017-09-28T17:51:15.809Z,16.90
2017-09-28T17:53:45.908Z,16.80
2017-09-28T17:56:15.721Z,16.80
2017-09-28T17:58:44.642Z,16.80
2017-09-28T18:01:14.529Z,16.60
2017-09-28T18:03:42.969Z,16.60
2017-09-28T18:06:11.851Z,16.60
2017-09-28T18:08:40.960Z,16.50
2017-09-28T18:11:10.381Z,16.50
2017-09-28T18:13:40.660Z,16.40
2017-09-28T18:16:11.058Z,16.30
2017-09-28T18:18:42.631Z,16.30
2017-09-28T18:21:12.287Z,16.20
2017-09-28T18:23:41.448Z,16.10
2017-09-28T18:26:09.885Z,16.10
2017-09-28T18:28:39.830Z,16.10
2017-09-28T18:31:08.902Z,16.00
2017-09-28T18:33:38.320Z,16.00
2017-09-28T18:36:08.525Z,15.90
2017-09-28T18:38:37.534Z,15.90
2017-09-28T18:41:06.256Z,15.90
2017-09-28T18:43:36.744Z,15.90
2017-09-28T18:46:06.610Z,15.80
2017-09-28T18:48:35.287Z,15.70
2017-09-28T18:51:04.508Z,15.70
2017-09-28T18:53:36.122Z,15.70
2017-09-28T18:56:08.871Z,15.70
2017-09-28T18:58:39.407Z,15.70
2017-09-28T19:01:13.074Z,15.70
2017-09-28T19:03:44.125Z,15.60
2017-09-28T19:06:17.863Z,15.60
2017-09-28T19:08:48.609Z,15.50
2017-09-28T19:11:19.015Z,15.50
2017-09-28T19:13:47.693Z,15.50
2017-09-28T19:16:19.011Z,15.40
2017-09-28T19:18:47.421Z,15.40
2017-09-28T19:21:16.003Z,15.40
2017-09-28T19:23:44.442Z,15.30
2017-09-28T19:26:12.835Z,15.30
2017-09-28T19:28:41.802Z,15.30
2017-09-28T19:31:11.243Z,15.20
2017-09-28T19:33:39.664Z,15.20
2017-09-28T19:36:08.875Z,15.00
2017-09-28T19:38:37.255Z,15.00
2017-09-28T19:41:06.491Z,15.10
2017-09-28T19:43:35.206Z,15.10
2017-09-28T19:46:03.677Z,15.00
2017-09-28T19:48:32.882Z,15.00
2017-09-28T19:51:01.865Z,15.00
2017-09-28T19:53:32.019Z,15.00
2017-09-28T19:56:00.922Z,14.90
2017-09-28T19:58:29.979Z,15.00
2017-09-28T20:00:58.478Z,15.10
2017-09-28T20:03:27.423Z,15.10
2017-09-28T20:05:56.642Z,15.00
2017-09-28T20:08:25.771Z,15.00
2017-09-28T20:10:54.203Z,15.00
2017-09-28T20:13:22.993Z,14.90
2017-09-28T20:15:51.700Z,14.90
2017-09-28T20:18:20.898Z,15.00
2017-09-28T20:20:49.314Z,14.90
2017-09-28T20:23:18.682Z,14.90
2017-09-28T20:25:47.129Z,14.90
2017-09-28T20:28:15.728Z,14.90
2017-09-28T20:30:44.429Z,14.90
2017-09-28T20:33:12.888Z,14.80
2017-09-28T20:35:41.293Z,14.80
2017-09-28T20:38:09.912Z,14.70
2017-09-28T20:40:39.075Z,14.60
2017-09-28T20:43:07.805Z,14.60
2017-09-28T20:45:36.282Z,14.60
2017-09-28T20:48:05.440Z,14.60
2017-09-28T20:50:34.036Z,14.50
2017-09-28T20:53:02.456Z,14.60
2017-09-28T20:55:30.878Z,14.50
2017-09-28T20:57:59.400Z,14.50
2017-09-28T21:00:27.990Z,14.50
2017-09-28T21:02:56.461Z,14.40
2017-09-28T21:05:25.611Z,14.40
2017-09-28T21:07:54.095Z,14.40
2017-09-28T21:10:22.524Z,14.50
2017-09-28T21:12:50.951Z,14.40
2017-09-28T21:15:19.738Z,14.40
2017-09-28T21:17:48.118Z,14.40
2017-09-28T21:20:16.516Z,14.40
2017-09-28T21:22:45.051Z,14.40
2017-09-28T21:25:13.479Z,14.40
2017-09-28T21:27:42.166Z,14.40
2017-09-28T21:30:10.561Z,14.30
2017-09-28T21:32:38.947Z,14.30
2017-09-28T21:35:08.131Z,14.20
2017-09-28T21:37:37.294Z,14.20
2017-09-28T21:40:05.762Z,14.20
2017-09-28T21:42:34.500Z,14.20
2017-09-28T21:45:05.541Z,14.10
2017-09-28T21:47:35.322Z,14.00
2017-09-28T21:50:04.887Z,14.00
2017-09-28T21:52:35.295Z,14.00
2017-09-28T21:55:04.860Z,13.90
2017-09-28T21:57:34.395Z,13.90
2017-09-28T22:00:05.448Z,13.90
2017-09-28T22:02:35.836Z,13.80
2017-09-28T22:05:06.380Z,13.80
2017-09-28T22:07:36.278Z,13.80
2017-09-28T22:10:06.494Z,13.80
2017-09-28T22:12:36.413Z,13.80
2017-09-28T22:15:06.043Z,13.90
2017-09-28T22:17:35.440Z,13.90
2017-09-28T22:20:06.227Z,13.90
2017-09-28T22:22:36.600Z,13.80
2017-09-28T22:25:06.725Z,13.80
2017-09-28T22:27:36.942Z,13.80
2017-09-28T22:30:07.224Z,13.80
2017-09-28T22:32:37.338Z,13.70
2017-09-28T22:35:07.935Z,13.70
2017-09-28T22:37:36.377Z,13.60
2017-09-28T22:40:04.786Z,13.60
2017-09-28T22:42:33.974Z,13.70
2017-09-28T22:45:03.128Z,13.70
2017-09-28T22:47:31.811Z,13.70
2017-09-28T22:50:00.211Z,13.60
2017-09-28T22:52:28.596Z,13.60
2017-09-28T22:54:57.001Z,13.60
2017-09-28T22:57:26.145Z,13.60
2017-09-28T22:59:54.864Z,13.60
2017-09-28T23:02:23.259Z,13.60
2017-09-28T23:04:51.651Z,13.60
2017-09-28T23:07:20.821Z,13.60
2017-09-28T23:09:49.200Z,13.60
2017-09-28T23:12:17.958Z,13.60
2017-09-28T23:14:46.339Z,13.60
2017-09-28T23:17:15.535Z,13.60
2017-09-28T23:19:44.733Z,13.60
2017-09-28T23:22:13.500Z,13.60
2017-09-28T23:24:42.023Z,13.60
2017-09-28T23:27:10.409Z,13.50
2017-09-28T23:29:38.793Z,13.50
2017-09-28T23:34:41.616Z,13.20
2017-09-28T23:37:10.071Z,13.40
2017-09-28T23:39:38.518Z,13.40
2017-09-28T23:42:06.905Z,13.40
2017-09-28T23:44:35.307Z,13.40
2017-09-28T23:47:03.691Z,13.40
2017-09-28T23:49:32.952Z,13.40
2017-09-28T23:52:01.884Z,13.40
2017-09-28T23:54:30.276Z,13.40
2017-09-28T23:56:59.192Z,13.30
2017-09-28T23:59:27.596Z,13.30
